Time;durP1;ratioP1;P1;durP2;ratioP2;P2;SDS_P1;SDS_P2;PMS_P1;PMS_P2;Temp;Humidity;BMP_temperature;BMP_pressure;BME280_temperature;BME280_humidity;BME280_pressure;Samples;Min_cycle;Max_cycle;Signal;HPM_P1;HPM_P2
2022/01/01 00:02:25;;;;;;;12.38;9.20;;;;;;;11.09;100.00;99870.20;715248;1199;114000;-81
2022/01/01 00:17:40;;;;;;;12.68;6.65;;;;;;;10.99;100.00;99903.55;717045;1199;113805;-81
2022/01/01 00:32:43;;;;;;;4.28;3.20;;;;;;;10.82;100.00;99947.14;717325;1203;113671;-80
2022/01/01 00:47:45;;;;;;;5.70;3.47;;;;;;;10.68;100.00;99971.23;716473;1175;113359;-80
2022/01/01 01:02:47;;;;;;;15.70;6.85;;;;;;;10.58;100.00;99958.16;715923;1199;113542;-81
2022/01/01 01:17:51;;;;;;;16.45;6.88;;;;;;;10.58;100.00;99951.11;717248;1176;114056;-81
2022/01/01 01:32:53;;;;;;;10.38;6.58;;;;;;;10.38;100.00;99987.05;716842;1177;113827;-80
2022/01/01 01:47:56;;;;;;;10.50;6.60;;;;;;;10.20;100.00;99989.55;716549;1176;115148;-79
2022/01/01 02:02:58;;;;;;;6.30;4.07;;;;;;;10.14;100.00;100003.20;714365;1177;113934;-80
2022/01/01 02:18:00;;;;;;;8.63;4.30;;;;;;;10.00;100.00;100030.66;714304;1203;114507;-80
2022/01/01 02:33:02;;;;;;;5.83;3.28;;;;;;;9.91;100.00;100050.66;714416;1200;113471;-80
2022/01/01 02:48:04;;;;;;;6.90;3.35;;;;;;;10.03;100.00;100053.14;714538;1199;113463;-79
2022/01/01 03:03:07;;;;;;;3.60;2.80;;;;;;;9.98;100.00;100045.70;714444;1202;113492;-80
2022/01/01 03:18:10;;;;;;;5.00;3.58;;;;;;;9.90;100.00;100063.91;714448;1175;113505;-80
2022/01/01 03:33:12;;;;;;;6.43;3.70;;;;;;;9.82;100.00;100088.98;714382;1177;113305;-81
2022/01/01 03:48:14;;;;;;;4.18;2.20;;;;;;;9.80;100.00;100101.37;714949;1177;113551;-81
2022/01/01 04:03:17;;;;;;;5.00;2.87;;;;;;;9.88;100.00;100120.84;716573;1199;113419;-81
2022/01/01 04:18:28;;;;;;;5.43;3.33;;;;;;;9.83;100.00;100153.52;716423;1177;113550;-81
2022/01/01 04:33:30;;;;;;;4.93;2.50;;;;;;;9.92;100.00;100164.97;716494;1175;113418;-80
2022/01/01 04:48:36;;;;;;;7.68;3.78;;;;;;;9.88;100.00;100162.77;716737;1199;115625;-80
2022/01/01 05:03:38;;;;;;;6.53;4.08;;;;;;;9.88;100.00;100168.01;716516;1175;113342;-81
2022/01/01 05:18:41;;;;;;;6.97;3.80;;;;;;;9.91;100.00;100172.97;717401;1200;114155;-80
2022/01/01 05:33:43;;;;;;;4.75;2.70;;;;;;;9.86;100.00;100183.02;714838;1178;113827;-81
2022/01/01 05:48:45;;;;;;;4.90;2.80;;;;;;;9.92;100.00;100179.88;715199;1177;113326;-80
2022/01/01 06:03:48;;;;;;;4.08;2.68;;;;;;;9.90;100.00;100202.78;716123;1174;114152;-81
2022/01/01 06:18:50;;;;;;;2.90;2.30;;;;;;;9.95;100.00;100217.13;715948;1176;113432;-80
2022/01/01 06:33:52;;;;;;;4.43;2.85;;;;;;;10.03;100.00;100241.83;714458;1200;113462;-80
2022/01/01 06:48:57;;;;;;;4.93;3.23;;;;;;;9.98;100.00;100237.00;714210;1178;114539;-80
2022/01/01 07:03:59;;;;;;;4.95;3.38;;;;;;;9.98;100.00;100260.59;713922;1200;113999;-80
2022/01/01 07:19:02;;;;;;;7.23;4.50;;;;;;;9.82;100.00;100269.75;714055;1203;113542;-79
2022/01/01 07:34:04;;;;;;;5.35;3.80;;;;;;;9.86;100.00;100293.91;714303;1199;114011;-79
2022/01/01 07:49:06;;;;;;;6.48;4.43;;;;;;;9.87;100.00;100303.44;714112;1203;114148;-82
2022/01/01 08:04:10;;;;;;;15.43;9.10;;;;;;;9.96;100.00;100318.38;714361;1200;115021;-83
2022/01/01 08:19:12;;;;;;;59.00;37.60;;;;;;;10.11;100.00;100350.31;714803;1200;114810;-76
2022/01/01 08:34:14;;;;;;;52.60;23.73;;;;;;;10.14;100.00;100373.63;713912;1203;113942;-79
2022/01/01 08:49:16;;;;;;;32.90;16.53;;;;;;;10.14;100.00;100399.02;713924;1202;114177;-79
2022/01/01 09:04:18;;;;;;;70.35;29.68;;;;;;;10.07;100.00;100424.92;713912;1199;115804;-80
2022/01/01 09:19:21;;;;;;;267.60;67.60;;;;;;;10.04;100.00;100440.89;713891;1202;114285;-73
2022/01/01 09:34:23;;;;;;;81.05;42.30;;;;;;;9.72;100.00;100478.44;714035;1203;115232;-73
2022/01/01 09:49:26;;;;;;;12.95;7.08;;;;;;;9.60;100.00;100497.78;713907;1203;114179;-73
2022/01/01 10:04:44;;;;;;;183.13;63.53;;;;;;;9.69;100.00;100509.29;714163;1199;114089;-74
2022/01/01 10:19:50;;;;;;;517.50;196.85;;;;;;;9.81;100.00;100543.19;714023;1199;115312;-74
2022/01/01 10:34:52;;;;;;;91.98;46.48;;;;;;;9.81;100.00;100561.53;714198;1199;114811;-73
2022/01/01 11:05:15;;;;;;;13.23;8.08;;;;;;;9.64;100.00;100591.70;714834;1176;113967;-83
2022/01/01 11:20:20;;;;;;;14.15;5.28;;;;;;;9.72;100.00;100605.99;714636;1192;113827;-80
2022/01/01 11:35:28;;;;;;;47.53;13.63;;;;;;;9.70;100.00;100611.36;717633;1177;113692;-81
2022/01/01 11:50:43;;;;;;;17.18;9.23;;;;;;;9.56;100.00;100629.95;717941;1177;113963;-83
2022/01/01 12:06:02;;;;;;;22.95;11.45;;;;;;;9.34;100.00;100628.98;716398;1173;113731;-82
2022/01/01 12:21:06;;;;;;;18.60;9.97;;;;;;;9.30;100.00;100654.59;718313;1175;114019;-82
2022/01/01 12:36:13;;;;;;;24.43;10.73;;;;;;;9.29;100.00;100686.95;718289;1175;113283;-82
2022/01/01 12:51:20;;;;;;;13.10;5.98;;;;;;;9.32;100.00;100714.69;718159;1177;115382;-84
2022/01/01 13:06:33;;;;;;;13.40;5.20;;;;;;;9.16;100.00;100759.52;718002;1192;113846;-83
2022/01/01 13:21:36;;;;;;;;;;;;;;;8.67;100.00;100803.19;715155;1199;114050;-75
2022/01/01 13:36:44;;;;;;;21.00;8.10;;;;;;;8.53;100.00;100819.85;714900;1200;100583;-77
2022/01/01 13:52:08;;;;;;;44.88;19.10;;;;;;;8.51;100.00;100847.05;714644;1188;113682;-80
2022/01/01 14:08:12;;;;;;;47.28;19.58;;;;;;;8.37;100.00;100864.52;715926;1200;114106;-90
2022/01/01 14:23:34;;;;;;;28.38;11.40;;;;;;;8.36;100.00;100896.00;716761;1174;114002;-90
2022/01/01 14:38:39;;;;;;;34.93;16.00;;;;;;;8.30;100.00;100928.61;716558;1200;114007;-89
2022/01/01 14:54:18;;;;;;;59.78;22.38;;;;;;;8.23;100.00;100943.05;717846;1176;113027;-90
2022/01/01 15:09:23;;;;;;;223.75;64.13;;;;;;;8.24;100.00;100955.19;716683;1174;114066;-91
2022/01/01 15:24:39;;;;;;;35.75;14.65;;;;;;;8.19;100.00;100962.50;716426;1177;114020;-91
2022/01/01 15:39:44;;;;;;;54.05;19.85;;;;;;;8.11;100.00;100981.30;716693;1199;113175;-74
2022/01/01 15:54:48;;;;;;;31.55;13.63;;;;;;;7.99;100.00;101009.08;715991;1199;114093;-74
2022/01/01 16:09:54;;;;;;;21.70;11.10;;;;;;;7.88;100.00;101011.55;715122;1199;115059;-75
2022/01/01 16:24:58;;;;;;;38.20;14.33;;;;;;;7.79;100.00;101036.51;714643;1176;114026;-74
2022/01/01 16:40:05;;;;;;;120.95;37.80;;;;;;;7.62;100.00;101037.58;714304;1199;113996;-77
2022/01/01 16:55:08;;;;;;;95.47;30.80;;;;;;;7.56;100.00;101080.60;714264;1177;114329;-74
2022/01/01 17:10:15;;;;;;;54.33;18.38;;;;;;;7.53;100.00;101085.17;714716;1199;114085;-76
2022/01/01 17:25:26;;;;;;;79.43;22.47;;;;;;;7.39;100.00;101115.59;714578;1175;113824;-80
2022/01/01 17:40:32;;;;;;;116.65;35.93;;;;;;;7.35;100.00;101132.38;714592;1174;114079;-77
2022/01/01 17:55:37;;;;;;;68.07;24.57;;;;;;;7.34;100.00;101133.30;714515;1193;114261;-76
2022/01/01 18:10:43;;;;;;;25.70;10.98;;;;;;;7.23;100.00;101165.27;714687;1200;115353;-77
2022/01/01 18:25:51;;;;;;;23.18;10.43;;;;;;;7.06;100.00;101178.46;714419;1177;115314;-74
2022/01/01 18:40:55;;;;;;;32.83;14.70;;;;;;;7.02;100.00;101167.39;714400;1191;114074;-77
2022/01/01 18:56:00;;;;;;;63.00;21.40;;;;;;;7.04;100.00;101186.39;714591;1176;114760;-78
2022/01/01 19:11:16;;;;;;;123.20;40.73;;;;;;;7.00;100.00;101177.89;714467;1176;114381;-72
2022/01/01 19:26:21;;;;;;;151.25;43.55;;;;;;;7.14;100.00;101191.92;714357;1200;114128;-71
2022/01/01 19:41:28;;;;;;;131.53;49.88;;;;;;;7.06;100.00;101222.82;714603;1199;114694;-74
2022/01/01 19:56:32;;;;;;;152.23;47.17;;;;;;;6.82;100.00;101216.34;714272;1200;114212;-73
2022/01/01 20:11:36;;;;;;;267.95;64.33;;;;;;;6.68;100.00;101185.00;714898;1199;114438;-73
2022/01/01 20:26:40;;;;;;;137.98;43.53;;;;;;;6.69;100.00;101206.69;714379;1186;114044;-72
2022/01/01 20:41:43;;;;;;;127.63;39.65;;;;;;;6.66;100.00;101233.77;715534;1200;114001;-73
2022/01/01 20:56:46;;;;;;;211.27;58.07;;;;;;;6.59;100.00;101232.45;715512;1199;114637;-77
2022/01/01 21:11:52;;;;;;;111.78;34.63;;;;;;;6.59;100.00;101212.42;715478;1178;115403;-77
2022/01/01 21:26:54;;;;;;;78.20;27.65;;;;;;;6.44;100.00;101195.89;715732;1199;115147;-76
2022/01/01 21:41:57;;;;;;;209.38;61.20;;;;;;;6.52;100.00;101221.53;715118;1176;113469;-76
2022/01/01 21:56:59;;;;;;;279.93;97.18;;;;;;;6.62;100.00;101209.63;714792;1177;114711;-76
2022/01/01 22:12:01;;;;;;;162.03;49.03;;;;;;;6.54;100.00;101184.95;714943;1200;114047;-76
2022/01/01 22:27:04;;;;;;;105.20;36.58;;;;;;;6.42;100.00;101183.87;714288;1199;115402;-75
2022/01/01 22:42:06;;;;;;;30.83;14.90;;;;;;;6.22;100.00;101180.61;714624;1199;113436;-76
2022/01/01 22:57:09;;;;;;;32.08;14.00;;;;;;;6.05;100.00;101152.05;715048;1175;114619;-77
2022/01/01 23:12:11;;;;;;;18.25;8.05;;;;;;;5.99;100.00;101146.25;718386;1177;114971;-76
2022/01/01 23:27:14;;;;;;;11.73;5.48;;;;;;;5.99;100.00;101142.78;714571;1200;114610;-76
2022/01/01 23:42:17;;;;;;;12.50;5.88;;;;;;;5.98;100.00;101123.73;714677;1199;114846;-76
2022/01/01 23:57:27;;;;;;;21.40;8.18;;;;;;;5.98;100.00;101089.04;714196;1199;115172;-76
